createdAt,value
2017-08-30T00:00:46.281Z,94.21
2017-08-30T00:01:58.950Z,94.21
2017-08-30T00:03:10.897Z,94.02
2017-08-30T00:04:22.849Z,94.21
2017-08-30T00:05:35.463Z,94.31
2017-08-30T00:06:48.079Z,93.55
2017-08-30T00:08:00.627Z,93.64
2017-08-30T00:09:12.939Z,93.26
2017-08-30T00:10:25.172Z,93.45
2017-08-30T00:11:37.813Z,93.55
2017-08-30T00:12:50.361Z,93.55
2017-08-30T00:14:02.941Z,93.07
2017-08-30T00:15:15.490Z,92.3
2017-08-30T00:16:27.777Z,93.26
2017-08-30T00:17:40.316Z,92.97
2017-08-30T00:18:52.939Z,93.07
2017-08-30T00:20:05.586Z,92.69
2017-08-30T00:21:17.860Z,93.35
2017-08-30T00:22:30.742Z,93.16
2017-08-30T00:23:43.355Z,93.35
2017-08-30T00:24:55.917Z,93.07
2017-08-30T00:26:08.522Z,93.07
2017-08-30T00:27:20.806Z,93.07
2017-08-30T00:28:33.389Z,93.26
2017-08-30T00:29:45.987Z,92.49
2017-08-30T00:30:58.637Z,92.11
2017-08-30T00:32:10.614Z,92.11
2017-08-30T00:33:22.891Z,92.4
2017-08-30T00:34:35.206Z,92.21
2017-08-30T00:35:47.463Z,92.02
2017-08-30T00:37:00.076Z,92.3
2017-08-30T00:38:12.305Z,91.63
2017-08-30T00:39:24.867Z,91.44
2017-08-30T00:40:37.533Z,91.53
2017-08-30T00:41:50.095Z,91.63
2017-08-30T00:43:02.668Z,91.68
2017-08-30T00:44:15.259Z,91.2
2017-08-30T00:45:27.241Z,91.53
2017-08-30T00:46:39.815Z,91.39
2017-08-30T00:47:51.807Z,91.53
2017-08-30T00:49:04.361Z,91.25
2017-08-30T00:50:16.892Z,91.53
2017-08-30T00:51:29.187Z,91.39
2017-08-30T00:52:41.501Z,91.3
2017-08-30T00:53:54.135Z,91.39
2017-08-30T00:55:07.007Z,91.2
2017-08-30T00:56:19.235Z,91.39
2017-08-30T00:57:31.815Z,91.59
2017-08-30T00:58:44.361Z,91.49
2017-08-30T00:59:56.947Z,91.11
2017-08-30T01:01:09.245Z,91.49
2017-08-30T01:02:21.517Z,91.59
2017-08-30T01:03:34.125Z,91.59
2017-08-30T01:04:46.776Z,91.3
2017-08-30T01:05:59.373Z,91.39
2017-08-30T01:07:11.703Z,91.59
2017-08-30T01:08:24.275Z,91.39
2017-08-30T01:09:36.821Z,91.59
2017-08-30T01:10:49.375Z,91.59
2017-08-30T01:12:01.938Z,90.16
2017-08-30T01:13:14.192Z,90.44
2017-08-30T01:14:26.796Z,90.25
2017-08-30T01:15:39.395Z,90.63
2017-08-30T01:16:52.051Z,90.73
2017-08-30T01:18:04.374Z,90.63
2017-08-30T01:19:16.961Z,90.44
2017-08-30T01:20:29.589Z,90.44
2017-08-30T01:21:41.872Z,90.63
2017-08-30T01:22:54.512Z,90.34
2017-08-30T01:24:07.093Z,90.63
2017-08-30T01:25:19.409Z,90.34
2017-08-30T01:26:32.003Z,91.02
2017-08-30T01:27:44.624Z,90.44
2017-08-30T01:28:56.866Z,91.3
2017-08-30T01:30:09.472Z,90.82
2017-08-30T01:31:21.979Z,90.25
2017-08-30T01:32:34.304Z,90.34
2017-08-30T01:33:46.882Z,90.16
2017-08-30T01:34:59.494Z,89.96
2017-08-30T01:36:12.036Z,89.96
2017-08-30T01:37:24.645Z,89.39
2017-08-30T01:38:37.328Z,89.48
2017-08-30T01:39:49.898Z,89.77
2017-08-30T01:41:02.221Z,89.67
2017-08-30T01:42:14.487Z,89.39
2017-08-30T01:43:26.745Z,89.39
2017-08-30T01:44:39.281Z,89.29
2017-08-30T01:45:51.572Z,89.29
2017-08-30T01:47:04.144Z,89.48
2017-08-30T01:48:16.688Z,89.39
2017-08-30T01:49:29.360Z,89.29
2017-08-30T01:50:41.970Z,89.29
2017-08-30T01:51:54.554Z,89.39
2017-08-30T01:53:07.154Z,89.2
2017-08-30T01:54:19.429Z,89.2
2017-08-30T01:55:32.013Z,89.1
2017-08-30T01:56:44.591Z,88.81
2017-08-30T01:57:57.130Z,88.62
2017-08-30T01:59:09.424Z,88.48
2017-08-30T02:00:21.708Z,88.72
2017-08-30T02:01:34.366Z,88.72
2017-08-30T02:02:46.654Z,88.58
2017-08-30T02:03:58.925Z,88.77
2017-08-30T02:05:11.531Z,88.68
2017-08-30T02:06:23.850Z,88.48
2017-08-30T02:07:36.397Z,88.43
2017-08-30T02:08:48.965Z,88.58
2017-08-30T02:10:01.561Z,88.48
2017-08-30T02:11:13.491Z,88.01
2017-08-30T02:12:26.089Z,88.77
2017-08-30T02:13:38.343Z,88.29
2017-08-30T02:14:50.306Z,88.48
2017-08-30T02:16:02.575Z,87.82
2017-08-30T02:17:15.211Z,88.1
2017-08-30T02:18:27.755Z,87.34
2017-08-30T02:19:40.345Z,87.62
2017-08-30T02:20:52.895Z,87.62
2017-08-30T02:22:04.870Z,87.82
2017-08-30T02:23:16.845Z,87.72
2017-08-30T02:24:29.112Z,87.53
2017-08-30T02:25:41.722Z,87.43
2017-08-30T02:26:54.336Z,87.72
2017-08-30T02:28:06.296Z,86.47
2017-08-30T02:29:18.852Z,86.86
2017-08-30T02:30:31.113Z,86.67
2017-08-30T02:31:43.682Z,86.57
2017-08-30T02:32:56.283Z,86.57
2017-08-30T02:34:08.623Z,86.47
2017-08-30T02:35:21.238Z,86.57
2017-08-30T02:36:33.783Z,86.67
2017-08-30T02:37:46.310Z,86.67
2017-08-30T02:38:58.874Z,85.9
2017-08-30T02:40:11.535Z,86.29
2017-08-30T02:41:24.066Z,86
2017-08-30T02:42:36.632Z,86.38
2017-08-30T02:43:49.145Z,85.9
2017-08-30T02:45:01.732Z,86.19
2017-08-30T02:46:14.279Z,86.38
2017-08-30T02:47:26.869Z,86.67
2017-08-30T02:48:39.459Z,86.19
2017-08-30T02:49:52.085Z,85.42
2017-08-30T02:51:04.724Z,85.42
2017-08-30T02:52:17.281Z,84.95
2017-08-30T02:53:29.868Z,84.76
2017-08-30T02:54:42.239Z,84.95
2017-08-30T02:55:54.245Z,84.95
2017-08-30T02:57:06.519Z,85.05
2017-08-30T02:58:19.120Z,84.85
2017-08-30T02:59:31.670Z,84.95
2017-08-30T03:00:43.984Z,84.85
2017-08-30T03:01:56.516Z,84.85
2017-08-30T03:03:08.770Z,84.85
2017-08-30T03:04:21.115Z,84.95
2017-08-30T03:05:33.659Z,84.76
2017-08-30T03:06:46.254Z,84.95
2017-08-30T03:07:58.863Z,84.95
2017-08-30T03:09:11.158Z,84.95
2017-08-30T03:10:23.717Z,84.76
2017-08-30T03:11:36.375Z,84.95
2017-08-30T03:12:48.977Z,85.33
2017-08-30T03:14:01.556Z,85.14
2017-08-30T03:15:13.492Z,85.24
2017-08-30T03:16:25.533Z,85.52
2017-08-30T03:17:38.178Z,85.52
2017-08-30T03:18:50.743Z,85.42
2017-08-30T03:20:03.309Z,84.95
2017-08-30T03:21:15.578Z,84.95
2017-08-30T03:22:27.887Z,85.14
2017-08-30T03:23:40.432Z,84.76
2017-08-30T03:24:53.152Z,84.76
2017-08-30T03:26:05.399Z,84.76
2017-08-30T03:27:17.705Z,85.14
2017-08-30T03:28:30.289Z,84.85
2017-08-30T03:29:42.896Z,84.95
2017-08-30T03:30:55.525Z,84.85
2017-08-30T03:32:08.163Z,84.85
2017-08-30T03:33:20.409Z,85.19
2017-08-30T03:34:32.684Z,84.95
2017-08-30T03:35:45.244Z,84.62
2017-08-30T03:36:57.829Z,84.62
2017-08-30T03:38:10.597Z,84.23
2017-08-30T03:39:23.163Z,83.42
2017-08-30T03:40:35.426Z,83.13
2017-08-30T03:41:47.987Z,83.04
2017-08-30T03:43:00.532Z,83.13
2017-08-30T03:44:13.088Z,83.23
2017-08-30T03:45:25.097Z,83
2017-08-30T03:46:37.704Z,83.28
2017-08-30T03:47:50.225Z,82.71
2017-08-30T03:49:02.827Z,82.42
2017-08-30T03:50:14.785Z,82.56
2017-08-30T03:51:27.398Z,82.61
2017-08-30T03:52:39.989Z,82.04
2017-08-30T03:53:52.545Z,82.71
2017-08-30T03:55:04.531Z,82.56
2017-08-30T03:56:17.178Z,82.52
2017-08-30T03:57:29.791Z,82.71
2017-08-30T03:58:42.379Z,82.71
2017-08-30T03:59:55.001Z,82.71
2017-08-30T04:01:07.293Z,82.71
2017-08-30T04:02:19.204Z,82.61
2017-08-30T04:03:31.756Z,82.61
2017-08-30T04:04:44.422Z,82.81
2017-08-30T04:05:56.993Z,82.9
2017-08-30T04:07:09.588Z,82.71
2017-08-30T04:08:22.170Z,82.81
2017-08-30T04:09:34.746Z,82.28
2017-08-30T04:10:47.350Z,82.71
2017-08-30T04:12:00.000Z,81.85
2017-08-30T04:13:12.309Z,81.95
2017-08-30T04:14:24.548Z,82.14
2017-08-30T04:15:37.115Z,82.23
2017-08-30T04:16:49.574Z,82.32
2017-08-30T04:18:01.804Z,82.32
2017-08-30T04:19:14.112Z,82.42
2017-08-30T04:20:26.399Z,82.14
2017-08-30T04:21:38.978Z,82.23
2017-08-30T04:22:51.530Z,82.71
2017-08-30T04:24:04.100Z,82.61
2017-08-30T04:25:16.678Z,82.71
2017-08-30T04:26:29.261Z,82.42
2017-08-30T04:27:42.112Z,82.71
2017-08-30T04:28:54.774Z,82.61
2017-08-30T04:30:07.023Z,82.71
2017-08-30T04:31:19.625Z,82.14
2017-08-30T04:32:32.172Z,81.95
2017-08-30T04:33:44.765Z,81.85
2017-08-30T04:34:57.374Z,81.27
2017-08-30T04:36:09.990Z,81.37
2017-08-30T04:37:22.257Z,81.56
2017-08-30T04:38:34.882Z,81.18
2017-08-30T04:39:47.521Z,81.56
2017-08-30T04:40:59.758Z,81.47
2017-08-30T04:42:12.023Z,81.47
2017-08-30T04:43:24.621Z,81.76
2017-08-30T04:44:37.201Z,81.85
2017-08-30T04:45:49.509Z,81.76
2017-08-30T04:47:02.129Z,81.66
2017-08-30T04:48:14.395Z,81.7
2017-08-30T04:49:26.712Z,81.66
2017-08-30T04:50:39.244Z,81.76
2017-08-30T04:51:51.838Z,81.66
2017-08-30T04:53:04.183Z,81.7
2017-08-30T04:54:16.759Z,81.41
2017-08-30T04:55:29.013Z,81.47
2017-08-30T04:56:41.582Z,81.76
2017-08-30T04:57:54.229Z,81.6
2017-08-30T04:59:06.801Z,81.79
2017-08-30T05:00:19.438Z,81.66
2017-08-30T05:01:31.965Z,81.79
2017-08-30T05:02:44.619Z,81.51
2017-08-30T05:03:57.176Z,81.51
2017-08-30T05:05:09.453Z,81.51
2017-08-30T05:06:21.111Z,81.99
2017-08-30T05:07:33.720Z,81.6
2017-08-30T05:08:45.984Z,81.6
2017-08-30T05:09:58.514Z,81.89
2017-08-30T05:11:11.156Z,81.32
2017-08-30T05:12:23.720Z,81.7
2017-08-30T05:13:36.325Z,81.41
2017-08-30T05:14:48.910Z,81.51
2017-08-30T05:16:01.542Z,81.32
2017-08-30T05:17:14.160Z,81.6
2017-08-30T05:18:26.717Z,81.41
2017-08-30T05:19:39.269Z,81.13
2017-08-30T05:20:51.871Z,80.84
2017-08-30T05:22:03.803Z,81.03
2017-08-30T05:23:15.470Z,81.41
2017-08-30T05:24:28.055Z,81.13
2017-08-30T05:25:40.353Z,81.7
2017-08-30T05:26:53.250Z,81.51
2017-08-30T05:28:05.852Z,81.7
2017-08-30T05:29:18.422Z,81.55
2017-08-30T05:30:30.691Z,80.98
2017-08-30T05:31:42.985Z,80.98
2017-08-30T05:32:55.553Z,80.98
2017-08-30T05:34:08.154Z,81.07
2017-08-30T05:35:20.463Z,81.16
2017-08-30T05:36:32.726Z,81.07
2017-08-30T05:37:45.519Z,80.88
2017-08-30T05:38:57.474Z,81.07
2017-08-30T05:40:09.701Z,80.98
2017-08-30T05:41:21.965Z,81.07
2017-08-30T05:42:34.230Z,81.36
2017-08-30T05:43:46.867Z,81.16
2017-08-30T05:44:59.434Z,80.88
2017-08-30T05:46:12.041Z,81.16
2017-08-30T05:47:24.337Z,81.07
2017-08-30T05:48:36.924Z,81.65
2017-08-30T05:49:49.503Z,81.65
2017-08-30T05:51:02.161Z,81.65
2017-08-30T05:52:14.734Z,81.3
2017-08-30T05:53:27.032Z,81.49
2017-08-30T05:54:39.276Z,81.78
2017-08-30T05:55:51.857Z,81.59
2017-08-30T05:57:04.119Z,81.68
2017-08-30T05:58:16.711Z,81.88
2017-08-30T05:59:29.023Z,81.49
2017-08-30T06:00:41.581Z,81.68
2017-08-30T06:01:54.242Z,81.59
2017-08-30T06:03:06.796Z,81.49
2017-08-30T06:04:19.050Z,81.59
2017-08-30T06:05:31.300Z,81.59
2017-08-30T06:06:43.923Z,81.97
2017-08-30T06:07:56.203Z,81.97
2017-08-30T06:09:08.476Z,81.92
2017-08-30T06:10:20.447Z,82.3
2017-08-30T06:11:33.049Z,82.78
2017-08-30T06:12:45.634Z,83.26
2017-08-30T06:13:58.247Z,84.12
2017-08-30T06:15:10.204Z,84.12
2017-08-30T06:16:22.852Z,84.35
2017-08-30T06:17:35.162Z,84.26
2017-08-30T06:18:47.441Z,85.21
2017-08-30T06:19:59.676Z,85.6
2017-08-30T06:21:12.229Z,85.69
2017-08-30T06:22:24.805Z,87.23
2017-08-30T06:23:36.471Z,86.94
2017-08-30T06:24:48.748Z,87.03
2017-08-30T06:26:01.289Z,86.94
2017-08-30T06:27:13.894Z,87.55
2017-08-30T06:28:26.190Z,87.46
2017-08-30T06:29:38.801Z,88.51
2017-08-30T06:30:51.364Z,88.51
2017-08-30T06:32:03.941Z,88.99
2017-08-30T06:33:16.211Z,89.09
2017-08-30T06:34:28.505Z,88.99
2017-08-30T06:35:41.069Z,90.05
2017-08-30T06:36:53.323Z,90.23
2017-08-30T06:38:05.317Z,90.19
2017-08-30T06:39:17.590Z,91.14
2017-08-30T06:40:29.844Z,91.53
2017-08-30T06:41:42.083Z,91.43
2017-08-30T06:42:54.958Z,91.96
2017-08-30T06:44:07.622Z,94.17
2017-08-30T06:45:20.141Z,93.4
2017-08-30T06:46:32.706Z,93.82
2017-08-30T06:47:44.625Z,93.15
2017-08-30T06:48:56.904Z,94.07
2017-08-30T06:50:08.886Z,94.69
2017-08-30T06:51:21.176Z,98.05
2017-08-30T06:52:33.791Z,98.68
2017-08-30T06:53:46.368Z,98.82
2017-08-30T06:54:58.586Z,99.54
2017-08-30T06:56:11.179Z,99.59
2017-08-30T06:57:23.476Z,99.74
2017-08-30T06:58:36.061Z,99.79
2017-08-30T06:59:48.371Z,99.99
2017-08-30T07:01:00.666Z,99.99
2017-08-30T07:02:13.277Z,99.21
2017-08-30T07:03:25.827Z,98.58
2017-08-30T07:04:38.123Z,98.44
2017-08-30T07:05:50.685Z,98.25
2017-08-30T07:07:02.951Z,97.14
2017-08-30T07:08:14.899Z,97.04
2017-08-30T07:09:27.531Z,96.03
2017-08-30T07:10:40.150Z,96.31
2017-08-30T07:11:52.397Z,95.15
2017-08-30T07:13:04.694Z,95.15
2017-08-30T07:14:17.019Z,94.96
2017-08-30T07:15:29.659Z,95.1
2017-08-30T07:16:42.234Z,95.01
2017-08-30T07:17:54.554Z,94.62
2017-08-30T07:19:06.895Z,94.24
2017-08-30T07:20:19.499Z,94.24
2017-08-30T07:21:32.098Z,94.43
2017-08-30T07:22:44.375Z,93.9
2017-08-30T07:23:57.006Z,93.08
2017-08-30T07:25:09.285Z,93.08
2017-08-30T07:26:21.568Z,93.37
2017-08-30T07:27:33.589Z,93.17
2017-08-30T07:28:45.549Z,93.08
2017-08-30T07:29:58.155Z,93.08
2017-08-30T07:31:10.163Z,93.08
2017-08-30T07:32:22.435Z,93.32
2017-08-30T07:33:35.054Z,92.88
2017-08-30T07:34:47.380Z,92.2
2017-08-30T07:36:00.052Z,91.82
2017-08-30T07:37:12.613Z,92.24
2017-08-30T07:38:24.875Z,91.52
2017-08-30T07:39:37.484Z,89.97
2017-08-30T07:40:50.146Z,90.3
2017-08-30T07:42:02.487Z,89.62
2017-08-30T07:43:14.751Z,88.6
2017-08-30T07:44:27.047Z,87.92
2017-08-30T07:45:39.304Z,87.77
2017-08-30T07:46:51.651Z,87.68
2017-08-30T07:48:04.243Z,86.85
2017-08-30T07:49:16.221Z,87.04
2017-08-30T07:50:28.243Z,85.72
2017-08-30T07:51:40.831Z,85.53
2017-08-30T07:52:53.423Z,85.77
2017-08-30T07:54:06.001Z,85.13
2017-08-30T07:55:18.270Z,85.32
2017-08-30T07:56:30.941Z,83.96
2017-08-30T07:57:43.481Z,84.35
2017-08-30T07:58:55.826Z,84.68
2017-08-30T08:00:08.427Z,85.07
2017-08-30T08:01:21.037Z,85.32
2017-08-30T08:02:33.667Z,85.32
2017-08-30T08:03:46.345Z,85.03
2017-08-30T08:04:58.923Z,84.45
2017-08-30T08:06:11.553Z,84.31
2017-08-30T08:07:24.170Z,85.28
2017-08-30T08:08:36.717Z,85.24
2017-08-30T08:09:49.313Z,85.92
2017-08-30T08:11:01.918Z,86.26
2017-08-30T08:12:14.228Z,87.23
2017-08-30T08:13:26.501Z,87.38
2017-08-30T08:14:38.779Z,87.54
2017-08-30T08:15:51.116Z,87.54
2017-08-30T08:17:03.463Z,88.46
2017-08-30T08:18:15.099Z,89.23
2017-08-30T08:19:27.374Z,90.11
2017-08-30T08:20:39.937Z,90.01
2017-08-30T08:21:52.237Z,90.94
2017-08-30T08:23:04.846Z,91.13
2017-08-30T08:24:17.166Z,90.74
2017-08-30T08:25:29.238Z,91.13
2017-08-30T08:26:41.854Z,90.8
2017-08-30T08:27:54.464Z,90.89
2017-08-30T08:29:07.018Z,91.76
2017-08-30T08:30:19.352Z,93.6
2017-08-30T08:31:31.651Z,93.02
2017-08-30T08:32:44.269Z,93.07
2017-08-30T08:33:56.886Z,92.3
2017-08-30T08:35:09.499Z,92.1
2017-08-30T08:36:22.095Z,92.4
2017-08-30T08:37:34.661Z,92.88
2017-08-30T08:38:46.881Z,93.85
2017-08-30T08:39:59.496Z,93.94
2017-08-30T08:41:12.060Z,93.46
2017-08-30T08:42:24.645Z,93.36
2017-08-30T08:43:37.243Z,92.78
2017-08-30T08:44:49.863Z,93.26
2017-08-30T08:46:02.173Z,93.36
2017-08-30T08:47:14.454Z,94.13
2017-08-30T08:48:27.040Z,94.43
2017-08-30T08:49:39.037Z,95.01
2017-08-30T08:50:51.332Z,94.62
2017-08-30T08:52:03.858Z,93.46
2017-08-30T08:53:15.811Z,93.46
2017-08-30T08:54:28.475Z,93.26
2017-08-30T08:55:40.690Z,93.55
2017-08-30T08:56:53.297Z,93.65
2017-08-30T08:58:05.612Z,93.85
2017-08-30T08:59:18.238Z,93.36
2017-08-30T09:00:30.836Z,93.26
2017-08-30T09:01:43.523Z,93.46
2017-08-30T09:02:56.113Z,93.75
2017-08-30T09:04:08.666Z,94.52
2017-08-30T09:05:21.254Z,94.13
2017-08-30T09:06:33.581Z,93.94
2017-08-30T09:07:46.164Z,93.85
2017-08-30T09:08:58.487Z,93.65
2017-08-30T09:10:11.142Z,92.93
2017-08-30T09:11:23.066Z,92.44
2017-08-30T09:12:35.048Z,93.12
2017-08-30T09:13:47.624Z,92.63
2017-08-30T09:15:00.180Z,92.34
2017-08-30T09:16:12.822Z,92.34
2017-08-30T09:17:25.131Z,91.86
2017-08-30T09:18:37.681Z,91.28
2017-08-30T09:19:50.270Z,91.38
2017-08-30T09:21:02.572Z,92.39
2017-08-30T09:22:14.226Z,91.71
2017-08-30T09:23:25.900Z,91.61
2017-08-30T09:24:38.219Z,91.71
2017-08-30T09:25:50.490Z,91.81
2017-08-30T09:27:03.089Z,92.49
2017-08-30T09:28:15.357Z,92
2017-08-30T09:29:27.992Z,91.52
2017-08-30T09:30:40.269Z,91.03
2017-08-30T09:31:52.839Z,91.22
2017-08-30T09:33:04.842Z,91.75
2017-08-30T09:34:16.833Z,91.56
2017-08-30T09:35:29.433Z,91.17
2017-08-30T09:36:42.033Z,90.59
2017-08-30T09:37:54.397Z,90.78
2017-08-30T09:39:07.021Z,91.17
2017-08-30T09:40:19.335Z,90.88
2017-08-30T09:41:31.306Z,90.11
2017-08-30T09:42:43.919Z,89.33
2017-08-30T09:43:56.515Z,89.86
2017-08-30T09:45:09.102Z,90.83
2017-08-30T09:46:20.813Z,90.73
2017-08-30T09:47:33.409Z,89.47
2017-08-30T09:48:45.634Z,89.37
2017-08-30T09:49:57.628Z,88.99
2017-08-30T09:51:09.939Z,89.09
2017-08-30T09:52:22.155Z,89.28
2017-08-30T09:53:34.780Z,88.45
2017-08-30T09:54:47.286Z,88.06
2017-08-30T09:55:59.246Z,88.84
2017-08-30T09:57:10.892Z,88.74
2017-08-30T09:58:23.502Z,87.68
2017-08-30T09:59:35.487Z,87.23
2017-08-30T10:00:48.115Z,87.13
2017-08-30T10:02:00.711Z,87.43
2017-08-30T10:03:13.284Z,86.75
2017-08-30T10:04:25.560Z,87.72
2017-08-30T10:05:38.161Z,85.97
2017-08-30T10:06:50.417Z,85.78
2017-08-30T10:08:02.685Z,86.69
2017-08-30T10:09:14.687Z,85.72
2017-08-30T10:10:26.944Z,85.33
2017-08-30T10:11:39.253Z,85.92
2017-08-30T10:12:51.870Z,86.4
2017-08-30T10:14:04.595Z,86.69
2017-08-30T10:15:17.160Z,85.14
2017-08-30T10:16:29.465Z,83.97
2017-08-30T10:17:42.118Z,83.92
2017-08-30T10:18:54.757Z,84.01
2017-08-30T10:20:07.434Z,84.21
2017-08-30T10:21:20.054Z,84.41
2017-08-30T10:22:32.332Z,83.44
2017-08-30T10:23:44.883Z,83.53
2017-08-30T10:24:57.111Z,83.76
2017-08-30T10:26:09.470Z,84.25
2017-08-30T10:27:21.815Z,83.28
2017-08-30T10:28:33.737Z,83.09
2017-08-30T10:29:46.310Z,83.28
2017-08-30T10:30:58.581Z,83.57
2017-08-30T10:32:11.122Z,82.89
2017-08-30T10:33:23.722Z,82.45
2017-08-30T10:34:35.988Z,81.71
2017-08-30T10:35:48.228Z,82.68
2017-08-30T10:37:00.229Z,81.61
2017-08-30T10:38:12.761Z,80.48
2017-08-30T10:39:25.397Z,79.9
2017-08-30T10:40:37.372Z,79.74
2017-08-30T10:41:49.631Z,79.25
2017-08-30T10:43:02.185Z,78.71
2017-08-30T10:44:14.142Z,78.61
2017-08-30T10:45:26.137Z,76.7
2017-08-30T10:46:38.677Z,76.74
2017-08-30T10:47:51.290Z,75.86
2017-08-30T10:49:03.522Z,74.73
2017-08-30T10:50:16.157Z,73.69
2017-08-30T10:51:28.406Z,73.34
2017-08-30T10:52:41.016Z,73.44
2017-08-30T10:53:53.529Z,73.11
2017-08-30T10:55:06.202Z,72.27
2017-08-30T10:56:17.911Z,70.74
2017-08-30T10:57:30.514Z,70.58
2017-08-30T10:58:43.109Z,68.75
2017-08-30T10:59:55.406Z,67.41
2017-08-30T11:01:07.986Z,65.42
2017-08-30T11:02:20.020Z,64.28
2017-08-30T11:03:31.997Z,63.23
2017-08-30T11:04:44.616Z,62.08
2017-08-30T11:05:57.227Z,61.55
2017-08-30T11:07:09.822Z,62.24
2017-08-30T11:08:22.178Z,60.2
2017-08-30T11:09:34.774Z,60.13
2017-08-30T11:10:47.017Z,59.84
2017-08-30T11:11:59.307Z,59.27
2017-08-30T11:13:11.618Z,58.91
2017-08-30T11:14:24.225Z,58.61
2017-08-30T11:15:36.851Z,58.05
2017-08-30T11:16:48.896Z,57.95
2017-08-30T11:18:01.525Z,56.77
2017-08-30T11:19:13.829Z,55.98
2017-08-30T11:20:26.700Z,54.53
2017-08-30T11:21:39.323Z,54.43
2017-08-30T11:22:51.026Z,54.26
2017-08-30T11:24:03.454Z,54.95
2017-08-30T11:25:15.709Z,54.97
2017-08-30T11:26:27.995Z,55.18
2017-08-30T11:27:40.248Z,54.58
2017-08-30T11:28:52.876Z,53.2
2017-08-30T11:30:04.857Z,53.13
2017-08-30T11:31:16.509Z,53.05
2017-08-30T11:32:29.184Z,52.44
2017-08-30T11:33:41.833Z,52.76
2017-08-30T11:34:53.834Z,52.58
2017-08-30T11:36:06.469Z,52.19
2017-08-30T11:37:18.755Z,51.52
2017-08-30T11:38:31.061Z,50.66
2017-08-30T11:39:43.728Z,51.05
2017-08-30T11:40:56.325Z,51.07
2017-08-30T11:42:08.944Z,50.29
2017-08-30T11:43:21.565Z,49.79
2017-08-30T11:44:33.863Z,49.52
2017-08-30T11:45:46.493Z,48.63
2017-08-30T11:46:59.179Z,48.53
2017-08-30T11:48:11.777Z,48.33
2017-08-30T11:49:23.794Z,47.14
2017-08-30T11:50:36.358Z,47.63
2017-08-30T11:51:48.338Z,46.74
2017-08-30T11:53:00.327Z,47.16
2017-08-30T11:54:12.926Z,47.46
2017-08-30T11:55:25.247Z,46.86
2017-08-30T11:56:37.849Z,47.66
2017-08-30T11:57:50.731Z,47.83
2017-08-30T11:59:03.061Z,48.23
2017-08-30T12:00:15.473Z,48.63
2017-08-30T12:01:27.511Z,47.63
2017-08-30T12:02:39.828Z,46.92
2017-08-30T12:03:52.417Z,46.84
2017-08-30T12:05:05.053Z,46.15
2017-08-30T12:06:17.433Z,46.45
2017-08-30T12:07:29.697Z,46.74
2017-08-30T12:08:41.934Z,46.42
2017-08-30T12:09:54.570Z,46.62
2017-08-30T12:11:07.216Z,46.45
2017-08-30T12:12:19.496Z,46.15
2017-08-30T12:13:32.169Z,46.45
2017-08-30T12:14:43.861Z,45.95
2017-08-30T12:15:56.498Z,46.05
2017-08-30T12:17:08.746Z,46.15
2017-08-30T12:18:21.383Z,46.15
2017-08-30T12:19:33.953Z,45.53
2017-08-30T12:20:46.565Z,46.52
2017-08-30T12:21:59.220Z,46.62
2017-08-30T12:23:11.808Z,46.89
2017-08-30T12:24:24.119Z,48.46
2017-08-30T12:25:36.739Z,48.43
2017-08-30T12:26:49.046Z,48.51
2017-08-30T12:28:01.682Z,48.78
2017-08-30T12:29:13.926Z,48.16
2017-08-30T12:30:26.189Z,48.14
2017-08-30T12:31:38.784Z,49.5
2017-08-30T12:32:51.038Z,50.07
2017-08-30T12:34:03.646Z,50.95
2017-08-30T12:35:15.932Z,51.32
2017-08-30T12:36:28.524Z,51.59
2017-08-30T12:37:40.827Z,52.06
2017-08-30T12:38:52.808Z,52.85
2017-08-30T12:40:05.097Z,53.91
2017-08-30T12:41:17.436Z,52.72
2017-08-30T12:42:29.736Z,53.49
2017-08-30T12:43:42.347Z,54.35
2017-08-30T12:44:54.944Z,54.44
2017-08-30T12:46:06.921Z,55.1
2017-08-30T12:47:19.221Z,56.18
2017-08-30T12:48:31.881Z,57.92
2017-08-30T12:49:43.869Z,57.82
2017-08-30T12:50:56.478Z,58.42
2017-08-30T12:52:08.817Z,58
2017-08-30T12:53:21.368Z,59.27
2017-08-30T12:54:33.988Z,61.1
2017-08-30T12:55:46.654Z,59.05
2017-08-30T12:56:58.657Z,57.87
2017-08-30T12:58:10.637Z,57.54
2017-08-30T12:59:22.945Z,57.35
2017-08-30T13:00:35.539Z,57.71
2017-08-30T13:01:48.150Z,57.32
2017-08-30T13:03:00.071Z,58.2
2017-08-30T13:04:12.678Z,58.07
2017-08-30T13:05:24.659Z,58.07
2017-08-30T13:06:37.222Z,57.49
2017-08-30T13:07:49.812Z,57.49
2017-08-30T13:09:01.789Z,57.29
2017-08-30T13:10:14.414Z,57.88
2017-08-30T13:11:26.756Z,57.68
2017-08-30T13:12:39.101Z,56.87
2017-08-30T13:13:51.669Z,57.76
2017-08-30T13:15:03.986Z,58.64
2017-08-30T13:16:16.642Z,58.73
2017-08-30T13:17:29.252Z,58.54
2017-08-30T13:18:41.865Z,58.73
2017-08-30T13:19:54.491Z,59.81
2017-08-30T13:21:06.456Z,59.42
2017-08-30T13:22:19.001Z,59.42
2017-08-30T13:23:31.269Z,59.32
2017-08-30T13:24:42.962Z,59.91
2017-08-30T13:25:55.249Z,59.39
2017-08-30T13:27:06.569Z,60.08
2017-08-30T13:28:18.900Z,60.08
2017-08-30T13:29:31.159Z,59.78
2017-08-30T13:30:43.782Z,60.96
2017-08-30T13:31:56.378Z,60.44
2017-08-30T13:33:08.706Z,60.44
2017-08-30T13:34:20.958Z,60.63
2017-08-30T13:35:33.310Z,60.83
2017-08-30T13:36:45.898Z,61.22
2017-08-30T13:37:58.558Z,62.1
2017-08-30T13:39:11.226Z,60.93
2017-08-30T13:40:22.547Z,61.12
2017-08-30T13:41:34.547Z,61.09
2017-08-30T13:42:47.110Z,61.61
2017-08-30T13:43:59.473Z,61.87
2017-08-30T13:45:12.069Z,62.39
2017-08-30T13:46:24.415Z,62.59
2017-08-30T13:47:37.020Z,62.69
2017-08-30T13:48:49.630Z,62.98
2017-08-30T13:50:02.218Z,62.79
2017-08-30T13:51:14.529Z,62.39
2017-08-30T13:52:27.160Z,63.08
2017-08-30T13:53:38.820Z,62.88
2017-08-30T13:54:51.432Z,62.69
2017-08-30T13:56:03.793Z,62.29
2017-08-30T13:57:15.708Z,62.59
2017-08-30T13:58:28.288Z,62.79
2017-08-30T13:59:40.603Z,61.41
2017-08-30T14:00:52.905Z,61.8
2017-08-30T14:02:04.565Z,62.42
2017-08-30T14:03:16.803Z,62.82
2017-08-30T14:04:29.093Z,62.92
2017-08-30T14:05:41.404Z,62.13
2017-08-30T14:06:54.030Z,62.92
2017-08-30T14:08:05.447Z,63.4
2017-08-30T14:09:17.558Z,62.62
2017-08-30T14:10:30.323Z,62.62
2017-08-30T14:11:42.688Z,62.82
2017-08-30T14:12:55.420Z,62.13
2017-08-30T14:14:07.509Z,61.93
2017-08-30T14:15:20.291Z,62.52
2017-08-30T14:16:32.643Z,62.39
2017-08-30T14:17:45.251Z,62.79
2017-08-30T14:18:57.853Z,63.18
2017-08-30T14:20:10.530Z,62.1
2017-08-30T14:21:23.120Z,61.22
2017-08-30T14:22:35.371Z,61.71
2017-08-30T14:23:47.972Z,61.58
2017-08-30T14:25:00.890Z,62.85
2017-08-30T14:26:12.840Z,63.86
2017-08-30T14:27:24.849Z,63.15
2017-08-30T14:28:37.477Z,62.85
2017-08-30T14:29:50.101Z,63.24
2017-08-30T14:31:02.778Z,63.44
2017-08-30T14:32:15.385Z,64.71
2017-08-30T14:33:27.950Z,65.2
2017-08-30T14:34:40.258Z,63.73
2017-08-30T14:35:52.877Z,62.63
2017-08-30T14:37:04.869Z,62.33
2017-08-30T14:38:17.177Z,62.82
2017-08-30T14:39:29.136Z,63.41
2017-08-30T14:40:42.005Z,62.92
2017-08-30T14:41:54.302Z,61.45
2017-08-30T14:43:06.285Z,61.65
2017-08-30T14:44:18.891Z,62.13
2017-08-30T14:45:31.212Z,62.73
2017-08-30T14:46:43.771Z,62.92
2017-08-30T14:47:56.358Z,62.79
2017-08-30T14:49:08.694Z,62.7
2017-08-30T14:50:20.983Z,63.38
2017-08-30T14:51:32.954Z,61.91
2017-08-30T14:52:45.519Z,60.94
2017-08-30T14:53:57.885Z,62.01
2017-08-30T14:55:09.873Z,62.21
2017-08-30T14:56:22.173Z,62.79
2017-08-30T14:57:34.798Z,62.6
2017-08-30T14:58:47.415Z,63.48
2017-08-30T14:59:59.957Z,63.57
2017-08-30T15:01:12.240Z,63.24
2017-08-30T15:02:24.851Z,63.64
2017-08-30T15:03:37.097Z,63.44
2017-08-30T15:04:49.740Z,63.64
2017-08-30T15:06:02.285Z,63.24
2017-08-30T15:07:14.833Z,63.83
2017-08-30T15:08:26.456Z,62.92
2017-08-30T15:09:38.689Z,62.24
2017-08-30T15:10:51.295Z,62.53
2017-08-30T15:12:03.648Z,61.85
2017-08-30T15:13:15.934Z,62.24
2017-08-30T15:14:27.946Z,62.53
2017-08-30T15:15:40.450Z,62.73
2017-08-30T15:16:53.055Z,62.7
2017-08-30T15:18:05.665Z,63.28
2017-08-30T15:19:17.665Z,63.77
2017-08-30T15:20:29.938Z,64.16
2017-08-30T15:21:42.532Z,64.75
2017-08-30T15:22:55.177Z,63.96
2017-08-30T15:24:07.407Z,62.57
2017-08-30T15:25:20.051Z,63.06
2017-08-30T15:26:32.693Z,63.15
2017-08-30T15:28:00.180Z,62.57
2017-08-30T15:29:12.815Z,62.76
2017-08-30T15:30:24.499Z,63.64
2017-08-30T15:31:36.521Z,62.28
2017-08-30T15:32:48.764Z,62.57
2017-08-30T15:34:01.366Z,63.15
2017-08-30T15:35:13.690Z,63.51